Frenchburg, Kentucky
Current Conditions -  °F | °C
As of 5:10 PM on Thursday 18 Dec 2014 (Local Time) from KSYM Reporting Station
Overcast Overcast  
Wind Chill: 23°   Ceiling: 8500
Heat Index: 30°   Visibility: 9mi
Dew Point: 23°   Wind: 7mph
Humidity: 75%   Direction: 300°WNW
Pressure: 30.22"   Gusts: NA
Location:  37.95°N, 83.63°W
Report Text: KSYM 182210Z AUTO 30006KT 9SM FEW020 OVC085 M01/M05 A3022 RMK AO2
Loading
Personal Weather Stations






























Interactive Weather Map New forecast layout! Learn more

10-Day Weather Forecast

Advertisements
Track Severe Weather on mobile